Time;durP1;ratioP1;P1;durP2;ratioP2;P2;SDS_P1;SDS_P2;PMS_P1;PMS_P2;Temp;Humidity;BMP_temperature;BMP_pressure;BME280_temperature;BME280_humidity;BME280_pressure;Samples;Min_cycle;Max_cycle;Signal;HPM_P1;HPM_P2
2024/01/24 00:02:15;;;;;;;7.73;7.13;;;;;;;;;;4994608;28;20220;-87
2024/01/24 00:04:46;;;;;;;8.40;7.50;;;;;;;;;;4987655;28;20604;-86
2024/01/24 00:07:14;;;;;;;8.63;7.93;;;;;;;;;;4989414;28;20311;-86
2024/01/24 00:09:39;;;;;;;9.13;8.40;;;;;;;;;;4984132;28;20217;-86
2024/01/24 00:12:05;;;;;;;8.60;7.80;;;;;;;;;;4985934;28;20221;-87
2024/01/24 00:14:31;;;;;;;9.67;8.83;;;;;;;;;;4989213;28;20295;-84
2024/01/24 00:16:59;;;;;;;8.50;7.77;;;;;;;;;;4978101;28;20290;-88
2024/01/24 00:19:25;;;;;;;10.23;9.27;;;;;;;;;;4982823;28;20239;-87
2024/01/24 00:21:51;;;;;;;8.40;7.70;;;;;;;;;;4991172;28;20216;-87
2024/01/24 00:24:16;;;;;;;10.63;9.83;;;;;;;;;;5002998;28;20216;-88
2024/01/24 00:26:46;;;;;;;11.53;10.53;;;;;;;;;;4986150;28;20228;-86
2024/01/24 00:29:15;;;;;;;12.33;11.30;;;;;;;;;;4985955;28;20235;-85
2024/01/24 00:31:43;;;;;;;12.10;11.10;;;;;;;;;;4999742;28;20227;-86
2024/01/24 00:34:11;;;;;;;13.10;12.00;;;;;;;;;;4990013;28;20224;-86
2024/01/24 00:36:38;;;;;;;12.97;11.70;;;;;;;;;;4974667;28;20225;-85
2024/01/24 00:39:07;;;;;;;15.20;13.33;;;;;;;;;;4967083;28;20220;-87
2024/01/24 00:41:33;;;;;;;13.87;12.77;;;;;;;;;;4978651;28;20217;-85
2024/01/24 00:43:59;;;;;;;14.17;12.97;;;;;;;;;;4982738;28;20227;-88
2024/01/24 00:46:24;;;;;;;14.30;13.00;;;;;;;;;;4985236;28;20239;-85
2024/01/24 00:48:50;;;;;;;14.30;13.10;;;;;;;;;;4982714;28;20212;-87
2024/01/24 00:51:16;;;;;;;14.17;13.03;;;;;;;;;;4985768;28;20681;-88
2024/01/24 00:53:41;;;;;;;14.33;13.13;;;;;;;;;;5002690;28;20282;-88
2024/01/24 00:56:10;;;;;;;13.60;12.40;;;;;;;;;;4995424;28;20231;-89
2024/01/24 00:58:38;;;;;;;13.53;12.43;;;;;;;;;;4999259;28;20247;-86
2024/01/24 01:01:03;;;;;;;14.07;12.90;;;;;;;;;;4977742;28;20209;-86
2024/01/24 01:03:29;;;;;;;13.77;12.67;;;;;;;;;;5008815;28;20283;-88
2024/01/24 01:05:57;;;;;;;13.07;11.97;;;;;;;;;;4995629;28;20231;-88
2024/01/24 01:08:22;;;;;;;14.43;13.33;;;;;;;;;;4989169;28;20217;-88
2024/01/24 01:10:50;;;;;;;13.97;12.87;;;;;;;;;;4982204;28;20217;-87
2024/01/24 01:13:16;;;;;;;14.23;13.03;;;;;;;;;;4986500;28;20652;-88
2024/01/24 01:15:44;;;;;;;15.43;14.23;;;;;;;;;;4989007;28;20225;-88
2024/01/24 01:18:10;;;;;;;14.27;12.97;;;;;;;;;;4981271;28;20215;-87
2024/01/24 01:20:36;;;;;;;14.93;13.73;;;;;;;;;;4963242;28;20288;-87
2024/01/24 01:23:07;;;;;;;13.67;12.63;;;;;;;;;;4991483;28;20212;-87
2024/01/24 01:25:32;;;;;;;13.10;12.00;;;;;;;;;;5002740;28;20229;-86
2024/01/24 01:28:03;;;;;;;12.93;11.93;;;;;;;;;;4971174;28;20221;-86
2024/01/24 01:30:31;;;;;;;12.33;11.40;;;;;;;;;;4987411;28;20570;-88
2024/01/24 01:32:56;;;;;;;13.40;12.30;;;;;;;;;;5014712;28;20228;-86
2024/01/24 01:35:22;;;;;;;13.23;12.13;;;;;;;;;;4987200;28;20217;-87
2024/01/24 01:41:37;;;;;;;12.73;11.57;;;;;;;;;;5028107;28;20235;-87
2024/01/24 01:44:05;;;;;;;12.30;11.27;;;;;;;;;;5002810;28;20224;-87
2024/01/24 01:46:31;;;;;;;12.30;11.20;;;;;;;;;;4986771;28;20289;-85
2024/01/24 01:48:59;;;;;;;10.70;9.90;;;;;;;;;;4998499;28;20612;-85
2024/01/24 01:51:25;;;;;;;10.63;9.73;;;;;;;;;;4994686;28;20221;-86
2024/01/24 01:53:56;;;;;;;11.27;10.37;;;;;;;;;;4990072;28;20256;-86
2024/01/24 01:56:26;;;;;;;11.33;10.43;;;;;;;;;;4986864;28;20224;-86
2024/01/24 01:58:51;;;;;;;10.87;9.97;;;;;;;;;;4974279;28;20233;-86
2024/01/24 02:01:17;;;;;;;9.80;9.10;;;;;;;;;;4970148;28;20287;-87
2024/01/24 02:03:48;;;;;;;9.83;9.03;;;;;;;;;;5010644;28;20321;-85
2024/01/24 02:06:16;;;;;;;9.63;8.93;;;;;;;;;;4997401;28;20887;-87
2024/01/24 02:08:44;;;;;;;10.80;9.90;;;;;;;;;;4984974;28;20308;-87
2024/01/24 02:11:15;;;;;;;10.50;9.70;;;;;;;;;;5009491;28;20270;-85
2024/01/24 02:13:40;;;;;;;9.10;8.33;;;;;;;;;;4997304;28;20244;-88
2024/01/24 02:16:07;;;;;;;9.70;8.90;;;;;;;;;;4979652;28;20220;-88
2024/01/24 02:18:33;;;;;;;9.97;9.20;;;;;;;;;;4989521;28;20304;-84
2024/01/24 02:20:59;;;;;;;9.67;8.97;;;;;;;;;;4987222;28;20331;-86
2024/01/24 02:23:25;;;;;;;9.40;8.73;;;;;;;;;;5001631;28;20224;-85
2024/01/24 02:25:57;;;;;;;8.60;7.97;;;;;;;;;;4990346;28;20258;-85
2024/01/24 02:28:25;;;;;;;8.80;8.17;;;;;;;;;;5001751;28;20716;-85
2024/01/24 02:30:51;;;;;;;8.23;7.53;;;;;;;;;;4996032;28;20239;-87
2024/01/24 02:33:16;;;;;;;9.83;8.23;;;;;;;;;;4955100;28;20272;-87
2024/01/24 02:35:44;;;;;;;8.37;7.77;;;;;;;;;;4977286;28;20833;-88
2024/01/24 02:38:10;;;;;;;8.00;7.23;;;;;;;;;;4975455;28;20219;-88
2024/01/24 02:40:38;;;;;;;7.40;6.80;;;;;;;;;;4981440;28;20246;-86
2024/01/24 02:43:08;;;;;;;6.83;6.23;;;;;;;;;;4994087;28;20294;-86
2024/01/24 02:45:33;;;;;;;6.07;5.47;;;;;;;;;;4988219;28;20239;-87
2024/01/24 02:47:59;;;;;;;6.63;6.03;;;;;;;;;;4992067;28;20669;-86
2024/01/24 02:50:27;;;;;;;6.67;6.07;;;;;;;;;;4982275;28;20288;-88
2024/01/24 02:52:55;;;;;;;6.40;5.90;;;;;;;;;;5008666;28;20235;-86
2024/01/24 02:55:24;;;;;;;5.77;5.37;;;;;;;;;;4989975;28;20224;-88
2024/01/24 02:57:49;;;;;;;5.87;5.27;;;;;;;;;;4998749;28;20234;-89
2024/01/24 03:00:18;;;;;;;6.23;4.93;;;;;;;;;;4997626;28;20591;-88
2024/01/24 03:02:46;;;;;;;5.43;4.97;;;;;;;;;;5000800;28;20250;-85
2024/01/24 03:05:14;;;;;;;5.37;4.97;;;;;;;;;;5010168;28;20216;-85
2024/01/24 03:07:40;;;;;;;6.73;4.77;;;;;;;;;;4990648;28;20634;-86
2024/01/24 03:10:08;;;;;;;5.30;4.80;;;;;;;;;;5020674;28;20268;-85
2024/01/24 03:12:38;;;;;;;5.43;4.90;;;;;;;;;;5012463;28;20232;-86
2024/01/24 03:15:05;;;;;;;4.30;3.90;;;;;;;;;;4996647;28;20221;-84
2024/01/24 03:17:32;;;;;;;4.40;4.07;;;;;;;;;;4997500;28;20319;-83
2024/01/24 03:19:58;;;;;;;4.77;4.20;;;;;;;;;;4997089;28;20304;-86
2024/01/24 03:22:24;;;;;;;3.93;3.63;;;;;;;;;;4998112;28;20238;-88
2024/01/24 03:24:51;;;;;;;3.50;3.20;;;;;;;;;;4969675;28;20233;-86
2024/01/24 03:27:17;;;;;;;4.20;3.80;;;;;;;;;;5001219;28;20239;-85
2024/01/24 03:29:45;;;;;;;3.47;3.17;;;;;;;;;;4979204;28;20308;-84
2024/01/24 03:32:13;;;;;;;3.23;2.93;;;;;;;;;;5000438;28;20247;-83
2024/01/24 03:34:40;;;;;;;3.30;3.00;;;;;;;;;;5002994;28;20311;-85
2024/01/24 03:37:08;;;;;;;3.47;3.17;;;;;;;;;;4989611;28;20217;-86
2024/01/24 03:39:35;;;;;;;3.10;2.80;;;;;;;;;;4991060;28;20216;-87
2024/01/24 03:42:06;;;;;;;3.30;2.87;;;;;;;;;;4993344;28;20308;-85
2024/01/24 03:44:32;;;;;;;2.87;2.00;;;;;;;;;;4981658;28;20275;-87
2024/01/24 03:46:59;;;;;;;4.03;2.60;;;;;;;;;;4990545;28;20220;-86
2024/01/24 03:49:27;;;;;;;2.47;2.27;;;;;;;;;;4981052;28;20226;-86
2024/01/24 03:51:55;;;;;;;3.50;2.47;;;;;;;;;;4986054;28;20263;-86
2024/01/24 03:54:23;;;;;;;2.57;2.10;;;;;;;;;;4986290;28;20233;-88
2024/01/24 03:56:49;;;;;;;2.73;2.10;;;;;;;;;;4990286;28;20228;-85
2024/01/24 04:03:02;;;;;;;1.40;1.30;;;;;;;;;;5044142;28;20211;-82
2024/01/24 04:05:32;;;;;;;1.90;1.40;;;;;;;;;;5021331;28;20208;-88
2024/01/24 04:07:58;;;;;;;2.00;1.80;;;;;;;;;;5005757;28;20211;-84
2024/01/24 04:10:26;;;;;;;1.73;1.10;;;;;;;;;;5014806;28;20220;-85
2024/01/24 04:12:52;;;;;;;2.30;1.50;;;;;;;;;;5030424;28;20216;-84
2024/01/24 04:15:20;;;;;;;2.23;1.53;;;;;;;;;;4997426;28;20212;-85
2024/01/24 04:17:46;;;;;;;2.67;1.37;;;;;;;;;;5016845;28;20240;-83
2024/01/24 04:20:18;;;;;;;1.57;1.30;;;;;;;;;;5024019;28;20204;-81
2024/01/24 04:22:43;;;;;;;2.60;1.57;;;;;;;;;;5018332;28;20231;-86
2024/01/24 04:25:09;;;;;;;3.03;1.20;;;;;;;;;;5000297;28;20208;-86
2024/01/24 04:27:37;;;;;;;1.20;1.00;;;;;;;;;;5020137;28;20204;-83
2024/01/24 04:30:06;;;;;;;2.93;1.00;;;;;;;;;;5007054;28;20276;-83
2024/01/24 04:32:32;;;;;;;3.07;1.10;;;;;;;;;;4996792;28;20216;-82
2024/01/24 04:34:57;;;;;;;1.90;1.00;;;;;;;;;;5022262;28;20281;-84
2024/01/24 04:37:25;;;;;;;1.33;0.83;;;;;;;;;;5025570;28;20236;-85
2024/01/24 04:39:52;;;;;;;2.03;0.80;;;;;;;;;;5005243;28;20228;-84
2024/01/24 04:42:19;;;;;;;2.40;0.90;;;;;;;;;;4995547;28;20289;-85
2024/01/24 04:44:48;;;;;;;4.27;1.40;;;;;;;;;;5012779;28;20220;-84
2024/01/24 04:47:17;;;;;;;3.30;1.23;;;;;;;;;;5022791;28;20218;-82
2024/01/24 04:49:45;;;;;;;5.10;1.33;;;;;;;;;;4995312;28;20204;-84
2024/01/24 04:52:13;;;;;;;3.73;1.40;;;;;;;;;;5009223;28;20218;-86
2024/01/24 04:54:41;;;;;;;4.93;1.40;;;;;;;;;;5026677;28;20215;-85
2024/01/24 04:57:07;;;;;;;4.47;1.57;;;;;;;;;;5006066;28;20267;-82
2024/01/24 04:59:37;;;;;;;5.67;1.80;;;;;;;;;;5005117;28;20193;-83
2024/01/24 05:02:06;;;;;;;4.17;1.40;;;;;;;;;;5012652;28;20227;-85
2024/01/24 05:04:31;;;;;;;6.73;1.57;;;;;;;;;;4991579;28;20228;-82
2024/01/24 05:06:57;;;;;;;12.67;1.83;;;;;;;;;;5001228;28;20229;-85
2024/01/24 05:09:29;;;;;;;7.40;1.77;;;;;;;;;;5002080;28;20223;-85
2024/01/24 05:11:54;;;;;;;7.63;2.00;;;;;;;;;;5008118;28;20219;-83
2024/01/24 05:14:20;;;;;;;12.37;2.60;;;;;;;;;;5027069;28;20315;-89
2024/01/24 05:16:49;;;;;;;5.43;1.60;;;;;;;;;;5012121;28;20238;-85
2024/01/24 05:19:15;;;;;;;9.23;2.27;;;;;;;;;;4991944;28;20215;-86
2024/01/24 05:21:44;;;;;;;12.80;2.50;;;;;;;;;;5008955;28;20255;-87
2024/01/24 05:24:16;;;;;;;8.30;1.90;;;;;;;;;;4997888;28;20227;-87
2024/01/24 05:26:46;;;;;;;10.90;2.07;;;;;;;;;;5002724;28;20223;-90
2024/01/24 05:29:14;;;;;;;10.57;2.47;;;;;;;;;;5003977;28;20216;-86
2024/01/24 05:31:49;;;;;;;12.87;2.67;;;;;;;;;;4982834;28;20308;-88
2024/01/24 05:34:20;;;;;;;10.33;2.17;;;;;;;;;;4966605;28;20258;-89
2024/01/24 05:36:45;;;;;;;9.17;1.90;;;;;;;;;;5002948;28;20258;-86
2024/01/24 05:39:11;;;;;;;6.50;1.87;;;;;;;;;;5009002;28;20216;-88
2024/01/24 05:41:38;;;;;;;11.43;2.30;;;;;;;;;;4996298;28;20223;-86
2024/01/24 05:44:06;;;;;;;13.53;2.57;;;;;;;;;;4976072;28;20465;-87
2024/01/24 05:46:34;;;;;;;12.87;2.63;;;;;;;;;;4988242;28;20702;-87
2024/01/24 05:49:02;;;;;;;9.30;2.20;;;;;;;;;;5020406;28;20212;-84
2024/01/24 05:51:27;;;;;;;9.50;2.30;;;;;;;;;;4997756;28;20986;-87
2024/01/24 05:53:58;;;;;;;9.10;2.10;;;;;;;;;;5005130;28;20247;-84
2024/01/24 05:56:30;;;;;;;8.63;2.60;;;;;;;;;;5005740;28;20224;-86
2024/01/24 05:58:56;;;;;;;13.60;2.90;;;;;;;;;;5007572;28;20332;-84
2024/01/24 06:01:25;;;;;;;10.10;2.70;;;;;;;;;;4990155;28;20228;-85
2024/01/24 06:03:51;;;;;;;10.03;2.40;;;;;;;;;;4994463;28;20227;-86
2024/01/24 06:06:20;;;;;;;13.63;2.67;;;;;;;;;;5016419;28;20216;-86
2024/01/24 06:08:48;;;;;;;8.90;2.43;;;;;;;;;;5011432;28;20243;-86
2024/01/24 06:11:17;;;;;;;11.30;2.70;;;;;;;;;;5009152;28;20215;-85
2024/01/24 06:13:45;;;;;;;12.37;2.73;;;;;;;;;;4985685;28;20229;-86
2024/01/24 06:16:13;;;;;;;12.87;2.53;;;;;;;;;;4983202;28;20325;-86
2024/01/24 06:18:38;;;;;;;8.53;2.50;;;;;;;;;;4987968;28;20312;-87
2024/01/24 06:21:04;;;;;;;13.80;2.30;;;;;;;;;;4984602;28;20224;-86
2024/01/24 06:23:32;;;;;;;4.77;1.63;;;;;;;;;;4969904;28;20224;-86
2024/01/24 06:25:59;;;;;;;9.60;2.40;;;;;;;;;;4985360;28;20232;-84
2024/01/24 06:28:28;;;;;;;7.77;2.10;;;;;;;;;;4993039;28;20223;-88
2024/01/24 06:30:55;;;;;;;12.97;2.53;;;;;;;;;;5010106;28;20260;-84
2024/01/24 06:33:21;;;;;;;8.30;1.80;;;;;;;;;;4985100;28;20266;-83
2024/01/24 06:35:49;;;;;;;10.33;2.53;;;;;;;;;;4981073;28;20237;-82
2024/01/24 06:38:15;;;;;;;13.97;2.73;;;;;;;;;;4960200;28;20219;-82
2024/01/24 06:40:40;;;;;;;12.07;2.73;;;;;;;;;;4991618;28;20651;-85
2024/01/24 06:43:06;;;;;;;13.33;2.83;;;;;;;;;;4994905;28;20224;-87
2024/01/24 06:45:34;;;;;;;13.80;3.27;;;;;;;;;;4976538;28;20217;-84
2024/01/24 06:48:04;;;;;;;17.20;3.47;;;;;;;;;;4973104;28;20696;-85
2024/01/24 06:50:31;;;;;;;11.47;2.57;;;;;;;;;;5005088;28;20252;-85
2024/01/24 06:52:59;;;;;;;14.00;2.80;;;;;;;;;;4991205;28;20246;-87
2024/01/24 06:55:24;;;;;;;14.93;3.17;;;;;;;;;;4977489;28;20280;-86
2024/01/24 06:57:50;;;;;;;14.93;3.23;;;;;;;;;;4998467;28;20225;-86
2024/01/24 07:00:21;;;;;;;11.83;3.10;;;;;;;;;;4986171;28;20217;-85
2024/01/24 07:02:48;;;;;;;12.80;2.93;;;;;;;;;;5003899;28;20273;-76
2024/01/24 07:05:17;;;;;;;15.27;2.77;;;;;;;;;;5010178;28;20220;-79
2024/01/24 07:07:42;;;;;;;13.27;3.03;;;;;;;;;;4975067;28;20289;-77
2024/01/24 07:10:10;;;;;;;12.50;3.30;;;;;;;;;;4999263;28;20253;-78
2024/01/24 07:12:44;;;;;;;13.83;3.30;;;;;;;;;;4993597;28;20255;-77
2024/01/24 07:15:10;;;;;;;9.90;2.40;;;;;;;;;;4979749;28;20651;-80
2024/01/24 07:17:36;;;;;;;15.83;3.30;;;;;;;;;;4976002;28;20323;-81
2024/01/24 07:20:01;;;;;;;14.10;3.03;;;;;;;;;;4994267;28;20236;-79
2024/01/24 07:22:30;;;;;;;17.70;3.50;;;;;;;;;;4979314;28;20232;-77
2024/01/24 07:24:55;;;;;;;17.53;3.77;;;;;;;;;;4993635;28;20221;-78
2024/01/24 07:27:21;;;;;;;12.20;2.60;;;;;;;;;;4995044;28;20273;-78
2024/01/24 07:29:46;;;;;;;15.17;4.00;;;;;;;;;;4983822;28;20228;-79
2024/01/24 07:32:12;;;;;;;13.33;4.17;;;;;;;;;;4982686;28;20232;-77
2024/01/24 07:34:42;;;;;;;34.77;22.80;;;;;;;;;;5009455;28;20224;-79
2024/01/24 07:37:08;;;;;;;17.67;3.73;;;;;;;;;;5000437;28;20673;-77
2024/01/24 07:39:34;;;;;;;20.10;4.30;;;;;;;;;;5012851;28;20224;-79
2024/01/24 07:41:59;;;;;;;18.50;4.47;;;;;;;;;;5011806;28;20335;-77
2024/01/24 07:44:29;;;;;;;16.47;3.77;;;;;;;;;;5002519;28;20688;-78
2024/01/24 07:46:58;;;;;;;22.67;4.50;;;;;;;;;;5011216;28;20289;-76
2024/01/24 07:49:28;;;;;;;21.23;4.40;;;;;;;;;;5014316;28;20220;-79
2024/01/24 07:51:53;;;;;;;18.00;4.20;;;;;;;;;;4972479;28;20741;-78
2024/01/24 07:54:21;;;;;;;21.30;4.47;;;;;;;;;;4994705;28;20233;-78
2024/01/24 07:56:46;;;;;;;21.57;4.60;;;;;;;;;;4978743;28;20302;-78
2024/01/24 07:59:16;;;;;;;15.70;4.13;;;;;;;;;;4990823;28;20294;-78
2024/01/24 08:01:48;;;;;;;21.17;4.60;;;;;;;;;;4996879;28;20228;-79
2024/01/24 08:04:16;;;;;;;22.10;4.77;;;;;;;;;;4974535;28;20597;-79
2024/01/24 08:06:41;;;;;;;20.53;5.03;;;;;;;;;;4993961;28;20223;-79
2024/01/24 08:09:09;;;;;;;16.13;3.73;;;;;;;;;;4961994;28;20224;-79
2024/01/24 08:11:34;;;;;;;19.20;3.97;;;;;;;;;;4996291;28;20224;-79
2024/01/24 08:14:00;;;;;;;17.10;4.03;;;;;;;;;;4997407;28;20232;-79
2024/01/24 08:16:25;;;;;;;21.00;4.40;;;;;;;;;;5014784;28;20216;-78
2024/01/24 08:18:55;;;;;;;19.50;4.53;;;;;;;;;;4997815;28;20255;-78
2024/01/24 08:21:25;;;;;;;11.13;3.37;;;;;;;;;;4995624;28;20235;-77
2024/01/24 08:23:51;;;;;;;18.13;4.73;;;;;;;;;;5004356;28;20236;-79
2024/01/24 08:26:16;;;;;;;16.63;4.40;;;;;;;;;;5012993;28;20576;-78
2024/01/24 08:28:45;;;;;;;15.70;4.17;;;;;;;;;;4996728;28;20303;-78
2024/01/24 08:31:11;;;;;;;19.07;4.60;;;;;;;;;;5001701;28;20228;-79
2024/01/24 08:33:37;;;;;;;17.03;4.53;;;;;;;;;;4995760;28;20228;-78
2024/01/24 08:36:04;;;;;;;18.17;3.93;;;;;;;;;;4994064;28;20220;-78
2024/01/24 08:38:30;;;;;;;18.93;4.20;;;;;;;;;;4988001;28;20229;-79
2024/01/24 08:40:55;;;;;;;17.53;4.33;;;;;;;;;;5005130;28;20235;-78
2024/01/24 08:43:24;;;;;;;20.97;4.80;;;;;;;;;;4972440;28;20220;-79
2024/01/24 08:45:53;;;;;;;18.33;4.70;;;;;;;;;;4996025;28;20256;-78
2024/01/24 08:48:21;;;;;;;17.40;3.87;;;;;;;;;;4974301;28;20250;-77
2024/01/24 08:50:47;;;;;;;20.67;4.80;;;;;;;;;;5002746;28;20231;-78
2024/01/24 08:53:17;;;;;;;15.57;4.17;;;;;;;;;;4994137;28;20221;-78
2024/01/24 08:55:43;;;;;;;14.50;4.63;;;;;;;;;;4987144;28;20233;-78
2024/01/24 08:58:11;;;;;;;15.73;4.03;;;;;;;;;;4999162;28;20220;-76
2024/01/24 09:00:38;;;;;;;16.80;4.30;;;;;;;;;;5013684;28;20229;-79
2024/01/24 09:03:04;;;;;;;16.53;4.13;;;;;;;;;;4986054;28;20755;-78
2024/01/24 09:05:32;;;;;;;20.50;4.83;;;;;;;;;;5005996;28;20216;-79
2024/01/24 09:07:57;;;;;;;19.17;4.77;;;;;;;;;;4960365;28;20220;-78
2024/01/24 09:10:23;;;;;;;24.27;4.50;;;;;;;;;;4988528;28;20594;-79
2024/01/24 09:12:48;;;;;;;22.30;4.43;;;;;;;;;;4969592;28;20235;-78
2024/01/24 09:15:17;;;;;;;16.20;4.23;;;;;;;;;;5013303;28;20225;-80
2024/01/24 09:17:43;;;;;;;21.43;5.03;;;;;;;;;;5013561;28;20271;-79
2024/01/24 09:20:09;;;;;;;19.60;4.47;;;;;;;;;;5004926;28;20720;-79
2024/01/24 09:22:35;;;;;;;17.17;4.10;;;;;;;;;;4990868;28;20228;-79
2024/01/24 09:25:00;;;;;;;15.57;4.70;;;;;;;;;;4962347;28;20803;-78
2024/01/24 09:27:26;;;;;;;21.93;5.20;;;;;;;;;;4982370;28;20212;-78
2024/01/24 09:29:51;;;;;;;17.70;4.50;;;;;;;;;;5008347;28;20466;-78
2024/01/24 09:32:17;;;;;;;18.80;4.30;;;;;;;;;;4993955;28;20224;-80
2024/01/24 09:34:45;;;;;;;20.97;4.70;;;;;;;;;;4996180;28;20645;-78
2024/01/24 09:37:13;;;;;;;17.27;4.80;;;;;;;;;;4971527;28;20219;-77
2024/01/24 09:39:39;;;;;;;18.33;4.43;;;;;;;;;;4966139;28;20729;-77
2024/01/24 09:42:04;;;;;;;23.33;5.40;;;;;;;;;;5004579;28;20224;-77
2024/01/24 09:44:34;;;;;;;21.23;4.90;;;;;;;;;;4992579;28;20220;-79
2024/01/24 09:46:59;;;;;;;22.40;4.47;;;;;;;;;;4995848;28;20224;-77
2024/01/24 09:49:25;;;;;;;18.43;4.30;;;;;;;;;;4977125;28;20227;-79
2024/01/24 09:51:53;;;;;;;19.67;4.63;;;;;;;;;;4975551;28;20229;-77
2024/01/24 09:54:18;;;;;;;19.57;4.33;;;;;;;;;;5006827;28;20306;-78
2024/01/24 09:56:44;;;;;;;17.20;4.20;;;;;;;;;;4993933;28;20224;-77
2024/01/24 09:59:10;;;;;;;21.10;4.10;;;;;;;;;;5008568;28;20701;-80
2024/01/24 10:01:39;;;;;;;20.13;4.50;;;;;;;;;;4963934;28;20253;-79
2024/01/24 10:04:05;;;;;;;15.30;4.33;;;;;;;;;;4965673;28;20693;-78
2024/01/24 10:06:31;;;;;;;15.27;3.60;;;;;;;;;;4976784;28;20229;-77
2024/01/24 10:08:57;;;;;;;17.40;4.40;;;;;;;;;;4984954;28;20217;-79
2024/01/24 10:11:29;;;;;;;20.57;4.47;;;;;;;;;;4964712;28;20311;-77
2024/01/24 10:13:57;;;;;;;14.37;4.53;;;;;;;;;;4979991;28;20232;-78
2024/01/24 10:16:24;;;;;;;19.07;4.67;;;;;;;;;;4974655;28;20280;-79
2024/01/24 10:18:51;;;;;;;20.60;4.33;;;;;;;;;;5009041;28;20668;-78
2024/01/24 10:21:22;;;;;;;16.57;4.20;;;;;;;;;;4993345;28;20227;-81
2024/01/24 10:23:48;;;;;;;17.07;4.23;;;;;;;;;;5027332;28;20230;-79
2024/01/24 10:26:16;;;;;;;20.93;3.93;;;;;;;;;;4995152;28;21034;-81
2024/01/24 10:28:43;;;;;;;22.47;4.03;;;;;;;;;;4996819;28;20231;-79
2024/01/24 10:31:11;;;;;;;16.93;4.50;;;;;;;;;;4989131;28;20307;-81
2024/01/24 10:33:37;;;;;;;16.37;3.67;;;;;;;;;;4994847;28;20287;-79
2024/01/24 10:36:03;;;;;;;13.87;3.93;;;;;;;;;;4996829;28;20270;-79
2024/01/24 10:38:31;;;;;;;18.83;4.00;;;;;;;;;;4986298;28;20224;-78
2024/01/24 10:41:00;;;;;;;18.47;4.30;;;;;;;;;;4994012;28;20710;-75
2024/01/24 10:43:26;;;;;;;19.70;4.13;;;;;;;;;;4994968;28;20220;-77
2024/01/24 10:45:51;;;;;;;17.30;4.20;;;;;;;;;;4986807;28;20320;-77
2024/01/24 10:48:17;;;;;;;18.83;4.60;;;;;;;;;;4990911;28;20216;-79
2024/01/24 10:50:43;;;;;;;16.33;4.30;;;;;;;;;;5004165;28;20754;-79
2024/01/24 10:53:08;;;;;;;15.47;4.00;;;;;;;;;;4994956;28;20223;-78
2024/01/24 10:55:36;;;;;;;14.30;4.17;;;;;;;;;;4996164;28;20861;-79
2024/01/24 10:58:04;;;;;;;13.57;3.43;;;;;;;;;;5013522;28;20339;-81
2024/01/24 11:00:30;;;;;;;22.33;6.43;;;;;;;;;;4994907;28;20239;-81
2024/01/24 11:02:58;;;;;;;19.13;7.13;;;;;;;;;;4982236;28;20239;-81
2024/01/24 11:05:28;;;;;;;17.93;5.97;;;;;;;;;;4989198;28;20598;-80
2024/01/24 11:08:33;;;;;;;18.77;4.93;;;;;;;;;;4988868;28;20225;-79
2024/01/24 11:11:05;;;;;;;21.27;5.23;;;;;;;;;;4933197;29;20235;-82
2024/01/24 11:13:34;;;;;;;18.27;4.20;;;;;;;;;;4986453;28;20630;-81
2024/01/24 11:16:02;;;;;;;18.70;4.53;;;;;;;;;;4988264;28;20220;-79
2024/01/24 11:18:32;;;;;;;20.27;3.87;;;;;;;;;;4982903;28;20220;-82
2024/01/24 11:21:01;;;;;;;16.77;4.40;;;;;;;;;;5001844;28;20266;-81
2024/01/24 11:23:38;;;;;;;14.60;4.10;;;;;;;;;;4990232;28;20247;-84
2024/01/24 11:26:04;;;;;;;12.70;4.33;;;;;;;;;;4996960;28;20333;-79
2024/01/24 11:28:29;;;;;;;17.20;4.67;;;;;;;;;;4974921;28;20756;-81
2024/01/24 11:30:55;;;;;;;13.80;4.60;;;;;;;;;;5012694;28;20282;-80
2024/01/24 11:33:20;;;;;;;15.90;4.27;;;;;;;;;;4992136;28;20316;-83
2024/01/24 11:35:47;;;;;;;19.20;4.53;;;;;;;;;;4995089;28;20231;-81
2024/01/24 11:38:22;;;;;;;14.43;3.43;;;;;;;;;;4989233;28;20251;-78
2024/01/24 11:40:51;;;;;;;18.37;4.47;;;;;;;;;;4997683;28;20232;-80
2024/01/24 11:43:29;;;;;;;22.13;4.67;;;;;;;;;;4982700;28;20304;-81
2024/01/24 11:46:07;;;;;;;19.33;4.33;;;;;;;;;;4975708;28;20579;-82
2024/01/24 11:48:36;;;;;;;16.67;4.13;;;;;;;;;;4979546;28;20251;-79
2024/01/24 11:51:04;;;;;;;15.77;4.00;;;;;;;;;;4988302;28;20244;-78
2024/01/24 11:53:36;;;;;;;14.93;3.87;;;;;;;;;;4995004;28;20236;-80
2024/01/24 11:56:09;;;;;;;21.17;4.70;;;;;;;;;;4980089;28;20246;-82
2024/01/24 11:58:34;;;;;;;18.67;4.63;;;;;;;;;;4989535;28;20228;-80
2024/01/24 12:01:09;;;;;;;13.70;3.93;;;;;;;;;;5013626;28;20236;-84
2024/01/24 12:03:34;;;;;;;16.43;4.37;;;;;;;;;;5025737;28;20227;-80
2024/01/24 12:06:00;;;;;;;17.13;4.23;;;;;;;;;;4989878;28;20224;-83
2024/01/24 12:08:28;;;;;;;18.10;4.60;;;;;;;;;;4984961;28;20212;-82
2024/01/24 12:10:56;;;;;;;16.33;4.40;;;;;;;;;;4970716;28;20601;-84
2024/01/24 12:13:26;;;;;;;19.57;4.27;;;;;;;;;;4992104;28;20232;-81
2024/01/24 12:15:53;;;;;;;17.43;4.00;;;;;;;;;;4992856;28;20597;-80
2024/01/24 12:18:18;;;;;;;18.53;4.27;;;;;;;;;;4978680;28;20259;-81
2024/01/24 12:20:48;;;;;;;20.53;4.87;;;;;;;;;;4993103;28;20232;-82
2024/01/24 12:23:16;;;;;;;14.60;4.30;;;;;;;;;;4992963;28;20678;-84
2024/01/24 12:25:44;;;;;;;16.50;4.37;;;;;;;;;;4972494;28;20231;-82
2024/01/24 12:28:13;;;;;;;23.07;6.40;;;;;;;;;;4999746;28;20212;-85
2024/01/24 12:30:47;;;;;;;17.20;4.50;;;;;;;;;;4976438;28;20851;-83
2024/01/24 12:33:14;;;;;;;23.00;5.27;;;;;;;;;;4995233;28;20797;-83
2024/01/24 12:35:43;;;;;;;22.50;5.50;;;;;;;;;;4993832;28;20280;-84
2024/01/24 12:38:08;;;;;;;16.83;4.73;;;;;;;;;;4990516;28;20232;-84
2024/01/24 12:40:34;;;;;;;13.63;3.77;;;;;;;;;;4974556;28;20232;-84
2024/01/24 12:43:01;;;;;;;17.03;4.43;;;;;;;;;;4979922;28;20599;-86
2024/01/24 12:45:27;;;;;;;18.73;4.10;;;;;;;;;;4996347;28;21017;-81
2024/01/24 12:47:53;;;;;;;19.93;4.70;;;;;;;;;;4975689;28;20220;-82
2024/01/24 12:50:20;;;;;;;17.00;4.13;;;;;;;;;;4992673;28;20225;-85
2024/01/24 12:52:48;;;;;;;17.60;4.20;;;;;;;;;;4989816;28;20776;-82
2024/01/24 12:55:16;;;;;;;19.17;4.13;;;;;;;;;;5005830;28;20220;-84
2024/01/24 12:57:43;;;;;;;15.97;4.17;;;;;;;;;;4991288;28;20222;-82
2024/01/24 13:00:12;;;;;;;17.93;4.40;;;;;;;;;;4997356;28;20221;-82
2024/01/24 13:02:40;;;;;;;28.90;7.30;;;;;;;;;;4980319;28;20239;-78
2024/01/24 13:05:06;;;;;;;27.10;8.07;;;;;;;;;;5002991;28;20230;-78
2024/01/24 13:07:32;;;;;;;14.73;4.50;;;;;;;;;;4985345;28;20216;-79
2024/01/24 13:10:01;;;;;;;19.63;5.80;;;;;;;;;;4984907;28;20965;-77
2024/01/24 13:12:26;;;;;;;19.70;5.53;;;;;;;;;;4986254;28;20238;-80
2024/01/24 13:14:52;;;;;;;21.87;5.23;;;;;;;;;;4987142;28;20224;-77
2024/01/24 13:17:20;;;;;;;27.67;4.60;;;;;;;;;;4989594;28;20224;-78
2024/01/24 13:19:46;;;;;;;15.87;4.03;;;;;;;;;;4998639;28;20712;-78
2024/01/24 13:22:12;;;;;;;21.77;4.77;;;;;;;;;;4983232;28;20236;-79
2024/01/24 13:24:38;;;;;;;20.87;4.87;;;;;;;;;;4995774;28;20909;-80
2024/01/24 13:27:03;;;;;;;15.67;4.10;;;;;;;;;;4992476;28;20312;-79
2024/01/24 13:29:29;;;;;;;15.70;3.90;;;;;;;;;;4999694;28;20726;-80
2024/01/24 13:31:57;;;;;;;23.37;4.80;;;;;;;;;;5004607;28;20220;-80
2024/01/24 13:34:22;;;;;;;20.03;4.50;;;;;;;;;;4981626;28;20224;-81
2024/01/24 13:36:48;;;;;;;25.07;4.83;;;;;;;;;;4996083;28;20221;-81
2024/01/24 13:39:14;;;;;;;21.33;4.63;;;;;;;;;;4982486;28;20271;-80
2024/01/24 13:41:45;;;;;;;24.83;4.90;;;;;;;;;;4994290;28;20224;-81
2024/01/24 13:44:16;;;;;;;22.40;5.20;;;;;;;;;;4985309;28;20251;-79
2024/01/24 13:46:41;;;;;;;17.77;4.90;;;;;;;;;;4993373;28;20603;-79
2024/01/24 13:49:10;;;;;;;24.83;5.37;;;;;;;;;;4971476;28;20216;-79
2024/01/24 13:51:36;;;;;;;27.23;4.80;;;;;;;;;;5020537;28;20261;-81
2024/01/24 13:54:04;;;;;;;19.13;4.23;;;;;;;;;;4985504;28;20236;-80
2024/01/24 13:56:32;;;;;;;24.07;4.67;;;;;;;;;;4996035;28;20277;-78
2024/01/24 13:58:58;;;;;;;22.17;4.90;;;;;;;;;;4994647;28;20242;-80
2024/01/24 14:01:23;;;;;;;17.07;4.47;;;;;;;;;;4975043;28;20232;-79
2024/01/24 14:03:51;;;;;;;21.57;4.70;;;;;;;;;;4980153;28;20229;-79
2024/01/24 14:06:19;;;;;;;21.40;5.03;;;;;;;;;;5007217;28;20266;-80
2024/01/24 14:08:45;;;;;;;22.37;5.00;;;;;;;;;;4975546;28;20224;-79
2024/01/24 14:11:11;;;;;;;15.60;4.20;;;;;;;;;;4996013;28;20238;-79
2024/01/24 14:13:37;;;;;;;22.77;5.90;;;;;;;;;;4971181;28;20228;-80
2024/01/24 14:16:03;;;;;;;26.27;7.47;;;;;;;;;;4993427;28;20220;-80
2024/01/24 14:18:28;;;;;;;25.93;6.63;;;;;;;;;;4998479;28;20220;-79
2024/01/24 14:20:56;;;;;;;23.07;5.90;;;;;;;;;;5004529;28;20293;-79
2024/01/24 14:23:22;;;;;;;17.93;4.53;;;;;;;;;;5017879;28;20239;-80
2024/01/24 14:25:47;;;;;;;20.00;5.70;;;;;;;;;;4979398;28;20221;-78
2024/01/24 14:28:13;;;;;;;25.87;8.00;;;;;;;;;;4977060;28;20236;-79
2024/01/24 14:30:39;;;;;;;26.57;6.53;;;;;;;;;;4983375;28;20284;-78
2024/01/24 14:33:05;;;;;;;23.23;6.00;;;;;;;;;;4987683;28;20228;-78
2024/01/24 14:35:32;;;;;;;21.40;4.73;;;;;;;;;;4992855;28;20250;-78
2024/01/24 14:37:58;;;;;;;21.67;5.00;;;;;;;;;;5010728;28;20227;-79
2024/01/24 14:40:23;;;;;;;19.97;5.10;;;;;;;;;;5026563;28;20228;-79
2024/01/24 14:42:51;;;;;;;24.53;4.97;;;;;;;;;;5025959;28;20220;-80